createdAt,value
2023-09-28T00:01:39.560Z,5.32
2023-09-28T00:04:08.143Z,7.05
2023-09-28T00:06:36.945Z,6.75
2023-09-28T00:09:06.014Z,6.68
2023-09-28T00:11:34.744Z,6.18
2023-09-28T00:14:03.192Z,6.03
2023-09-28T00:16:30.559Z,5.22
2023-09-28T00:18:59.799Z,7.03
2023-09-28T00:21:27.617Z,8.75
2023-09-28T00:23:56.162Z,5.90
2023-09-28T00:26:23.829Z,6.88
2023-09-28T00:28:53.613Z,5.45
2023-09-28T00:31:21.004Z,5.35
2023-09-28T00:33:49.505Z,7.13
2023-09-28T00:36:16.784Z,7.35
2023-09-28T00:38:48.837Z,5.82
2023-09-28T00:41:17.256Z,6.03
2023-09-28T00:43:46.087Z,6.13
2023-09-28T00:46:17.723Z,6.70
2023-09-28T00:48:55.231Z,6.32
2023-09-28T00:51:25.067Z,6.68
2023-09-28T00:53:52.513Z,6.97
2023-09-28T00:56:22.875Z,5.40
2023-09-28T00:58:53.306Z,5.47
2023-09-28T01:01:22.940Z,5.28
2023-09-28T01:03:50.280Z,7.38
2023-09-28T01:06:18.750Z,5.57
2023-09-28T01:08:46.050Z,6.90
2023-09-28T01:11:14.430Z,7.00
2023-09-28T01:13:41.857Z,6.65
2023-09-28T01:16:10.332Z,6.70
2023-09-28T01:18:39.112Z,6.32
2023-09-28T01:21:07.991Z,5.93
2023-09-28T01:23:36.686Z,5.88
2023-09-28T01:26:05.076Z,6.40
2023-09-28T01:28:32.389Z,9.45
2023-09-28T01:31:00.746Z,5.85
2023-09-28T01:33:28.767Z,6.55
2023-09-28T01:35:57.140Z,6.18
2023-09-28T01:38:35.964Z,6.10
2023-09-28T01:41:05.650Z,8.32
2023-09-28T01:43:32.836Z,6.28
2023-09-28T01:46:01.226Z,7.78
2023-09-28T01:48:28.491Z,6.35
2023-09-28T01:50:56.806Z,7.43
2023-09-28T01:53:24.778Z,8.20
2023-09-28T01:55:53.208Z,7.47
2023-09-28T01:58:23.040Z,7.05
2023-09-28T02:00:50.332Z,5.78
2023-09-28T02:03:18.708Z,6.18
2023-09-28T02:05:45.908Z,7.10
2023-09-28T02:08:14.069Z,6.13
2023-09-28T02:10:41.686Z,5.55
2023-09-28T02:13:10.235Z,7.38
2023-09-28T02:15:38.930Z,5.53
2023-09-28T02:18:07.482Z,5.82
2023-09-28T02:20:35.726Z,5.28
2023-09-28T02:23:04.119Z,6.30
2023-09-28T02:25:31.651Z,5.43
2023-09-28T02:28:00.066Z,7.10
2023-09-28T02:30:27.784Z,6.07
2023-09-28T02:32:57.705Z,7.03
2023-09-28T02:35:25.607Z,6.03
2023-09-28T02:37:55.085Z,7.80
2023-09-28T02:40:22.468Z,6.80
2023-09-28T02:42:50.844Z,5.70
2023-09-28T02:45:18.723Z,5.97
2023-09-28T02:47:48.763Z,5.28
2023-09-28T02:50:19.108Z,5.30
2023-09-28T02:52:49.075Z,5.97
2023-09-28T02:55:20.126Z,5.80
2023-09-28T02:57:48.911Z,5.78
2023-09-28T03:00:20.265Z,6.18
2023-09-28T03:02:48.839Z,7.40
2023-09-28T03:05:18.670Z,5.00
2023-09-28T03:07:47.390Z,8.47
2023-09-28T03:10:14.898Z,6.70
2023-09-28T03:12:46.045Z,6.05
2023-09-28T03:15:13.588Z,8.32
2023-09-28T03:17:43.177Z,6.00
2023-09-28T03:20:15.097Z,5.05
2023-09-28T03:22:45.996Z,6.78
2023-09-28T03:27:47.232Z,6.10
2023-09-28T03:30:15.899Z,5.88
2023-09-28T03:32:44.693Z,6.50
2023-09-28T03:35:12.919Z,5.47
2023-09-28T03:37:42.732Z,5.80
2023-09-28T03:40:13.638Z,5.80
2023-09-28T03:42:43.024Z,8.05
2023-09-28T03:45:12.547Z,5.80
2023-09-28T03:47:41.859Z,5.50
2023-09-28T03:50:12.157Z,6.55
2023-09-28T03:52:41.357Z,5.28
2023-09-28T03:55:13.728Z,7.65
2023-09-28T03:57:43.962Z,6.82
2023-09-28T04:00:15.662Z,7.18
2023-09-28T04:02:47.646Z,6.45
2023-09-28T04:05:18.027Z,5.60
2023-09-28T04:07:47.203Z,6.82
2023-09-28T04:10:17.698Z,7.22
2023-09-28T04:12:46.827Z,6.40
2023-09-28T04:15:15.170Z,7.38
2023-09-28T04:17:45.187Z,6.25
2023-09-28T04:20:14.582Z,7.88
2023-09-28T04:22:42.949Z,7.22
2023-09-28T04:25:13.236Z,7.10
2023-09-28T04:27:43.104Z,5.85
2023-09-28T04:30:12.456Z,6.25
2023-09-28T04:32:40.830Z,6.10
2023-09-28T04:35:12.392Z,5.80
2023-09-28T04:37:41.098Z,6.28
2023-09-28T04:40:12.482Z,6.57
2023-09-28T04:42:42.364Z,7.00
2023-09-28T04:45:11.641Z,5.78
2023-09-28T04:47:40.044Z,6.22
2023-09-28T04:50:09.652Z,7.55
2023-09-28T04:52:38.113Z,5.72
2023-09-28T04:55:08.561Z,5.82
2023-09-28T04:57:36.974Z,6.88
2023-09-28T05:00:09.546Z,5.97
2023-09-28T05:02:40.369Z,7.68
2023-09-28T05:05:12.413Z,6.72
2023-09-28T05:07:41.194Z,6.97
2023-09-28T05:10:10.460Z,6.72
2023-09-28T05:12:38.689Z,6.32
2023-09-28T05:15:10.550Z,6.50
2023-09-28T05:17:39.104Z,6.25
2023-09-28T05:20:09.232Z,7.68
2023-09-28T05:22:37.702Z,7.30
2023-09-28T05:25:06.556Z,8.75
2023-09-28T05:27:34.751Z,9.43
2023-09-28T05:30:04.805Z,6.85
2023-09-28T05:32:34.433Z,7.47
2023-09-28T05:35:04.031Z,6.47
2023-09-28T05:37:32.338Z,6.75
2023-09-28T05:40:01.721Z,6.38
2023-09-28T05:42:29.878Z,7.00
2023-09-28T05:44:58.108Z,5.95
2023-09-28T05:47:26.379Z,6.28
2023-09-28T05:49:56.161Z,7.20
2023-09-28T05:52:24.426Z,6.43
2023-09-28T05:54:54.266Z,7.18
2023-09-28T05:57:23.800Z,6.70
2023-09-28T05:59:52.029Z,6.80
2023-09-28T06:02:23.895Z,8.38
2023-09-28T06:04:52.667Z,8.23
2023-09-28T06:07:24.945Z,6.53
2023-09-28T06:09:53.817Z,6.65
2023-09-28T06:12:22.336Z,6.95
2023-09-28T06:14:50.876Z,7.57
2023-09-28T06:17:19.613Z,6.57
2023-09-28T06:22:25.025Z,7.45
2023-09-28T06:24:53.283Z,8.30
2023-09-28T06:27:21.671Z,8.40
2023-09-28T06:29:54.281Z,7.43
2023-09-28T06:32:23.662Z,6.18
2023-09-28T06:34:52.248Z,7.65
2023-09-28T06:37:20.588Z,8.23
2023-09-28T06:39:50.148Z,5.65
2023-09-28T06:42:34.631Z,5.75
2023-09-28T06:45:05.389Z,8.38
2023-09-28T06:47:46.378Z,6.15
2023-09-28T06:50:22.103Z,8.15
2023-09-28T06:52:50.633Z,6.63
2023-09-28T06:55:20.285Z,6.35
2023-09-28T06:57:49.885Z,7.90
2023-09-28T07:00:18.954Z,7.07
2023-09-28T07:02:48.780Z,9.45
2023-09-28T07:05:17.930Z,9.20
2023-09-28T07:07:47.687Z,10.93
2023-09-28T07:10:16.318Z,8.43
2023-09-28T07:12:46.149Z,10.60
2023-09-28T07:15:14.617Z,9.82
2023-09-28T07:17:43.691Z,6.65
2023-09-28T07:20:16.522Z,8.18
2023-09-28T07:22:45.101Z,9.40
2023-09-28T07:25:13.621Z,9.18
2023-09-28T07:27:45.128Z,8.80
2023-09-28T07:30:13.903Z,8.18
2023-09-28T07:32:42.459Z,9.27
2023-09-28T07:35:12.561Z,6.97
2023-09-28T07:37:41.411Z,9.55
2023-09-28T07:40:13.561Z,9.75
2023-09-28T07:42:42.708Z,9.27
2023-09-28T07:45:13.993Z,12.07
2023-09-28T07:47:42.691Z,9.77
2023-09-28T07:50:16.126Z,12.05
2023-09-28T07:52:45.086Z,12.98
2023-09-28T07:55:14.706Z,7.88
2023-09-28T08:00:18.770Z,8.52
2023-09-28T08:02:47.283Z,10.15
2023-09-28T08:05:15.715Z,8.88
2023-09-28T08:07:49.576Z,10.38
2023-09-28T08:10:24.961Z,8.45
2023-09-28T08:12:54.398Z,10.10
2023-09-28T08:15:36.066Z,10.52
2023-09-28T08:18:05.671Z,12.25
2023-09-28T08:20:36.011Z,10.00
2023-09-28T08:25:35.489Z,10.18
2023-09-28T08:28:03.859Z,10.10
2023-09-28T08:30:33.641Z,10.85
2023-09-28T08:33:03.140Z,11.48
2023-09-28T08:35:32.038Z,9.55
2023-09-28T08:38:00.892Z,9.13
2023-09-28T08:40:31.682Z,9.70
2023-09-28T08:43:06.589Z,9.18
2023-09-28T08:45:37.233Z,10.60
2023-09-28T08:48:09.693Z,7.78
2023-09-28T08:50:41.353Z,8.95
2023-09-28T08:53:10.897Z,15.73
2023-09-28T08:55:40.357Z,11.88
2023-09-28T08:58:10.110Z,11.88
2023-09-28T09:00:41.515Z,13.02
2023-09-28T09:03:10.553Z,11.10
2023-09-28T09:05:42.694Z,8.73
2023-09-28T09:08:14.157Z,8.60
2023-09-28T09:10:42.808Z,8.90
2023-09-28T09:13:18.110Z,10.32
2023-09-28T09:15:47.924Z,13.38
2023-09-28T09:18:21.157Z,8.37
2023-09-28T09:20:51.146Z,9.20
2023-09-28T09:23:20.235Z,8.47
2023-09-28T09:25:49.601Z,12.18
2023-09-28T09:28:30.819Z,8.48
2023-09-28T09:31:00.644Z,11.27
2023-09-28T09:33:29.978Z,12.95
2023-09-28T09:35:59.216Z,11.25
2023-09-28T09:38:31.861Z,8.50
2023-09-28T09:41:01.255Z,13.90
2023-09-28T09:43:32.562Z,9.68
2023-09-28T09:46:05.246Z,10.25
2023-09-28T09:48:41.301Z,8.77
2023-09-28T09:51:15.770Z,10.57
2023-09-28T09:53:45.393Z,16.15
2023-09-28T09:56:15.320Z,10.38
2023-09-28T09:58:49.005Z,10.13
2023-09-28T10:01:20.580Z,10.25
2023-09-28T10:03:51.837Z,11.15
2023-09-28T10:06:22.335Z,9.68
2023-09-28T10:08:52.162Z,14.27
2023-09-28T10:11:20.958Z,11.67
2023-09-28T10:13:51.486Z,8.65
2023-09-28T10:16:22.481Z,8.63
2023-09-28T10:18:54.560Z,12.10
2023-09-28T10:21:23.630Z,8.15
2023-09-28T10:23:56.904Z,13.40
2023-09-28T10:26:32.370Z,7.78
2023-09-28T10:29:05.344Z,7.10
2023-09-28T10:31:55.402Z,10.30
2023-09-28T10:34:27.714Z,10.25
2023-09-28T10:37:22.617Z,8.80
2023-09-28T10:39:57.471Z,9.07
2023-09-28T10:42:28.251Z,7.25
2023-09-28T10:44:58.277Z,7.88
2023-09-28T10:47:32.448Z,6.87
2023-09-28T10:50:02.072Z,9.00
2023-09-28T10:52:31.928Z,9.57
2023-09-28T10:55:01.088Z,13.73
2023-09-28T10:57:33.578Z,8.15
2023-09-28T11:00:03.459Z,7.60
2023-09-28T11:02:39.142Z,6.95
2023-09-28T11:05:10.465Z,6.85
2023-09-28T11:07:39.782Z,7.18
2023-09-28T11:10:10.169Z,9.88
2023-09-28T11:12:40.647Z,6.85
2023-09-28T11:15:11.213Z,8.70
2023-09-28T11:20:13.365Z,7.28
2023-09-28T11:22:42.041Z,7.67
2023-09-28T11:25:13.746Z,7.63
2023-09-28T11:27:44.901Z,9.32
2023-09-28T11:30:20.749Z,8.70
2023-09-28T11:32:53.013Z,7.00
2023-09-28T11:35:27.956Z,7.97
2023-09-28T11:38:01.202Z,11.73
2023-09-28T11:40:30.228Z,10.85
2023-09-28T11:43:01.073Z,9.18
2023-09-28T11:45:30.872Z,8.00
2023-09-28T11:48:04.229Z,11.97
2023-09-28T11:50:34.265Z,8.02
2023-09-28T11:53:03.506Z,8.87
2023-09-28T11:55:32.517Z,10.82
2023-09-28T11:58:02.250Z,8.45
2023-09-28T12:00:32.217Z,9.20
2023-09-28T12:03:03.992Z,11.03
2023-09-28T12:05:35.094Z,12.02
2023-09-28T12:08:04.334Z,9.80
2023-09-28T12:10:33.285Z,8.85
2023-09-28T12:13:01.959Z,7.93
2023-09-28T12:15:30.764Z,8.93
2023-09-28T12:17:59.740Z,10.63
2023-09-28T12:20:30.834Z,8.45
2023-09-28T12:23:00.577Z,11.45
2023-09-28T12:25:34.541Z,9.60
2023-09-28T12:28:04.206Z,7.88
2023-09-28T12:30:33.156Z,9.27
2023-09-28T12:33:02.689Z,12.10
2023-09-28T12:35:32.600Z,8.80
2023-09-28T12:38:05.046Z,6.80
2023-09-28T12:40:35.042Z,9.70
2023-09-28T12:43:06.447Z,10.40
2023-09-28T12:45:35.484Z,7.40
2023-09-28T12:48:05.363Z,15.70
2023-09-28T12:50:37.823Z,8.13
2023-09-28T12:53:06.711Z,8.57
2023-09-28T12:55:36.078Z,11.02
2023-09-28T12:58:05.495Z,8.45
2023-09-28T13:00:34.606Z,8.63
2023-09-28T13:03:08.319Z,6.53
2023-09-28T13:05:39.246Z,11.93
2023-09-28T13:10:36.926Z,8.10
2023-09-28T13:13:07.485Z,11.13
2023-09-28T13:15:35.959Z,9.60
2023-09-28T13:18:10.034Z,9.65
2023-09-28T13:20:41.382Z,11.18
2023-09-28T13:23:11.328Z,10.38
2023-09-28T13:25:40.601Z,8.52
2023-09-28T13:28:11.126Z,7.95
2023-09-28T13:30:40.880Z,9.38
2023-09-28T13:33:11.040Z,10.53
2023-09-28T13:35:42.057Z,7.93
2023-09-28T13:38:10.954Z,10.23
2023-09-28T13:40:41.361Z,9.13
2023-09-28T13:43:10.558Z,8.00
2023-09-28T13:45:39.051Z,7.15
2023-09-28T13:48:08.662Z,10.13
2023-09-28T13:50:37.201Z,14.50
2023-09-28T13:53:08.350Z,12.07
2023-09-28T13:55:37.738Z,8.15
2023-09-28T13:58:06.945Z,6.38
2023-09-28T14:00:41.504Z,7.97
2023-09-28T14:03:10.576Z,6.85
2023-09-28T14:05:39.664Z,8.57
2023-09-28T14:08:12.704Z,8.13
2023-09-28T14:10:41.095Z,8.80
2023-09-28T14:13:09.262Z,8.07
2023-09-28T14:15:38.591Z,11.80
2023-09-28T14:18:08.390Z,9.15
2023-09-28T14:20:37.689Z,8.87
2023-09-28T14:23:06.492Z,8.32
2023-09-28T14:25:36.222Z,12.20
2023-09-28T14:28:05.145Z,16.73
2023-09-28T14:30:33.532Z,7.88
2023-09-28T14:33:02.973Z,7.57
2023-09-28T14:35:31.684Z,7.80
2023-09-28T14:38:00.039Z,7.20
2023-09-28T14:40:28.340Z,7.18
2023-09-28T14:42:57.910Z,11.70
2023-09-28T14:45:26.222Z,10.00
2023-09-28T14:47:54.557Z,14.82
2023-09-28T14:50:22.929Z,8.15
2023-09-28T14:52:51.400Z,9.85
2023-09-28T14:55:19.856Z,6.85
2023-09-28T14:57:48.086Z,13.43
2023-09-28T15:00:18.219Z,6.63
2023-09-28T15:02:48.030Z,7.70
2023-09-28T15:05:16.414Z,8.90
2023-09-28T15:07:44.613Z,7.78
2023-09-28T15:10:13.554Z,7.05
2023-09-28T15:12:42.140Z,9.23
2023-09-28T15:15:10.730Z,7.00
2023-09-28T15:17:40.649Z,13.30
2023-09-28T15:20:11.255Z,7.67
2023-09-28T15:25:08.254Z,7.97
2023-09-28T15:27:36.940Z,8.20
2023-09-28T15:30:05.864Z,6.68
2023-09-28T15:32:34.298Z,8.15
2023-09-28T15:35:04.354Z,6.78
2023-09-28T15:37:32.719Z,8.90
2023-09-28T15:40:01.001Z,6.22
2023-09-28T15:42:29.296Z,7.93
2023-09-28T15:44:57.601Z,6.28
2023-09-28T15:47:26.290Z,10.27
2023-09-28T15:49:54.651Z,7.82
2023-09-28T15:52:24.355Z,7.82
2023-09-28T15:54:52.581Z,6.63
2023-09-28T15:57:20.894Z,8.82
2023-09-28T15:59:49.274Z,7.60
2023-09-28T16:02:18.330Z,8.23
2023-09-28T16:04:47.036Z,7.63
2023-09-28T16:07:15.557Z,8.15
2023-09-28T16:09:45.344Z,7.57
2023-09-28T16:12:13.680Z,6.93
2023-09-28T16:14:42.001Z,7.85
2023-09-28T16:17:10.405Z,6.57
2023-09-28T16:19:38.776Z,6.10
2023-09-28T16:22:08.256Z,8.00
2023-09-28T16:24:36.495Z,7.85
2023-09-28T16:27:06.163Z,8.75
2023-09-28T16:29:34.562Z,7.72
2023-09-28T16:32:03.490Z,7.68
2023-09-28T16:34:32.527Z,8.77
2023-09-28T16:37:00.952Z,8.13
2023-09-28T16:39:29.330Z,7.47
2023-09-28T16:41:57.773Z,7.40
2023-09-28T16:44:27.526Z,8.25
2023-09-28T16:46:55.786Z,8.55
2023-09-28T16:49:24.049Z,6.68
2023-09-28T16:51:52.307Z,5.82
2023-09-28T16:54:20.785Z,7.63
2023-09-28T16:56:49.131Z,7.70
2023-09-28T16:59:17.435Z,7.50
2023-09-28T17:01:47.284Z,7.50
2023-09-28T17:04:15.715Z,8.40
2023-09-28T17:06:44.033Z,6.00
2023-09-28T17:09:12.409Z,8.75
2023-09-28T17:11:41.202Z,7.78
2023-09-28T17:14:09.844Z,9.30
2023-09-28T17:16:38.234Z,6.97
2023-09-28T17:19:08.194Z,7.18
2023-09-28T17:21:36.848Z,6.87
2023-09-28T17:24:05.497Z,6.80
2023-09-28T17:26:33.875Z,8.15
2023-09-28T17:29:02.203Z,7.13
2023-09-28T17:31:30.480Z,6.97
2023-09-28T17:33:58.756Z,10.07
2023-09-28T17:36:28.398Z,7.88
2023-09-28T17:38:57.437Z,7.28
2023-09-28T17:41:25.722Z,6.80
2023-09-28T17:43:54.011Z,10.75
2023-09-28T17:46:22.391Z,8.82
2023-09-28T17:48:50.629Z,7.10
2023-09-28T17:51:18.963Z,6.85
2023-09-28T17:53:48.545Z,6.20
2023-09-28T17:56:16.855Z,6.47
2023-09-28T17:58:45.131Z,9.45
2023-09-28T18:01:13.325Z,7.50
2023-09-28T18:03:41.654Z,8.70
2023-09-28T18:06:10.143Z,7.43
2023-09-28T18:08:38.423Z,7.80
2023-09-28T18:11:08.382Z,9.43
2023-09-28T18:13:37.515Z,10.77
2023-09-28T18:16:06.544Z,10.75
2023-09-28T18:18:34.795Z,9.38
2023-09-28T18:21:03.031Z,9.05
2023-09-28T18:23:31.399Z,13.23
2023-09-28T18:25:59.753Z,13.10
2023-09-28T18:28:31.193Z,16.00
2023-09-28T18:30:59.532Z,18.63
2023-09-28T18:33:27.835Z,20.27
2023-09-28T18:35:57.342Z,18.23
2023-09-28T18:38:25.833Z,21.58
2023-09-28T18:40:54.299Z,18.73
2023-09-28T18:43:22.464Z,19.67
2023-09-28T18:45:55.956Z,21.42
2023-09-28T18:48:24.823Z,16.17
2023-09-28T18:50:53.962Z,14.20
2023-09-28T18:53:24.458Z,16.65
2023-09-28T18:55:55.068Z,17.50
2023-09-28T18:58:23.301Z,15.27
2023-09-28T19:00:52.763Z,15.27
2023-09-28T19:03:22.888Z,15.48
2023-09-28T19:05:51.246Z,10.63
2023-09-28T19:08:19.615Z,14.85
2023-09-28T19:10:55.945Z,12.57
2023-09-28T19:13:24.265Z,11.63
2023-09-28T19:15:52.551Z,11.57
2023-09-28T19:18:24.355Z,10.65
2023-09-28T19:20:52.648Z,10.10
2023-09-28T19:23:21.151Z,13.00
2023-09-28T19:25:49.806Z,11.18
2023-09-28T19:28:20.285Z,10.40
2023-09-28T19:30:50.230Z,13.27
2023-09-28T19:33:18.787Z,13.00
2023-09-28T19:35:48.541Z,11.55
2023-09-28T19:38:17.514Z,12.35
2023-09-28T19:40:45.987Z,10.45
2023-09-28T19:43:14.515Z,14.60
2023-09-28T19:45:43.171Z,10.93
2023-09-28T19:48:11.779Z,12.60
2023-09-28T19:50:41.773Z,12.75
2023-09-28T19:53:12.511Z,13.73
2023-09-28T19:55:42.095Z,11.95
2023-09-28T19:58:10.492Z,10.98
2023-09-28T20:00:40.510Z,14.43
2023-09-28T20:03:09.132Z,11.43
2023-09-28T20:05:37.759Z,11.38
2023-09-28T20:08:06.500Z,11.85
2023-09-28T20:10:36.276Z,10.80
2023-09-28T20:13:05.488Z,12.23
2023-09-28T20:15:33.851Z,14.07
2023-09-28T20:18:02.273Z,12.10
2023-09-28T20:20:30.598Z,11.32
2023-09-28T20:22:58.919Z,14.98
2023-09-28T20:25:27.189Z,8.38
2023-09-28T20:27:56.907Z,9.70
2023-09-28T20:30:25.268Z,12.02
2023-09-28T20:32:54.108Z,9.20
2023-09-28T20:35:22.490Z,13.77
2023-09-28T20:37:50.749Z,12.15
2023-09-28T20:40:19.088Z,9.18
2023-09-28T20:42:47.338Z,9.50
2023-09-28T20:45:17.231Z,10.95
2023-09-28T20:47:45.688Z,9.88
2023-09-28T20:50:16.030Z,8.57
2023-09-28T20:52:44.535Z,7.80
2023-09-28T20:55:13.002Z,9.15
2023-09-28T20:57:42.192Z,9.18
2023-09-28T21:00:12.616Z,13.02
2023-09-28T21:02:42.719Z,11.35
2023-09-28T21:05:11.731Z,10.00
2023-09-28T21:07:45.102Z,9.60
2023-09-28T21:10:14.400Z,7.72
2023-09-28T21:12:42.647Z,9.82
2023-09-28T21:15:11.687Z,9.45
2023-09-28T21:17:41.713Z,10.32
2023-09-28T21:20:12.370Z,12.23
2023-09-28T21:22:40.639Z,7.68
2023-09-28T21:25:09.865Z,10.38
2023-09-28T21:27:38.627Z,11.68
2023-09-28T21:30:09.857Z,9.50
2023-09-28T21:32:38.678Z,9.77
2023-09-28T21:35:10.818Z,8.38
2023-09-28T21:37:39.298Z,9.85
2023-09-28T21:40:09.367Z,10.18
2023-09-28T21:42:37.650Z,11.47
2023-09-28T21:45:07.030Z,8.15
2023-09-28T21:47:35.726Z,10.32
2023-09-28T21:50:04.635Z,10.30
2023-09-28T21:52:34.291Z,9.30
2023-09-28T21:55:02.577Z,8.15
2023-09-28T21:57:30.865Z,7.88
2023-09-28T21:59:59.042Z,9.73
2023-09-28T22:02:28.238Z,8.65
2023-09-28T22:04:56.625Z,9.18
2023-09-28T22:07:24.922Z,8.43
2023-09-28T22:09:54.935Z,9.00
2023-09-28T22:12:23.195Z,11.23
2023-09-28T22:14:51.477Z,9.80
2023-09-28T22:17:19.746Z,9.57
2023-09-28T22:19:48.017Z,13.13
2023-09-28T22:22:16.283Z,10.15
2023-09-28T22:24:44.490Z,8.35
2023-09-28T22:27:14.095Z,10.13
2023-09-28T22:29:42.428Z,9.23
2023-09-28T22:32:11.375Z,10.50
2023-09-28T22:34:39.598Z,8.60
2023-09-28T22:37:07.936Z,8.43
2023-09-28T22:39:36.214Z,12.90
2023-09-28T22:42:04.524Z,9.52
2023-09-28T22:44:34.214Z,8.07
2023-09-28T22:47:04.326Z,9.55
2023-09-28T22:49:32.668Z,11.00
2023-09-28T22:52:00.949Z,12.82
2023-09-28T22:54:29.164Z,9.05
2023-09-28T22:56:57.494Z,11.05
2023-09-28T22:59:25.883Z,9.00
2023-09-28T23:01:57.349Z,8.32
2023-09-28T23:04:27.928Z,12.20
2023-09-28T23:06:56.913Z,11.25
2023-09-28T23:09:26.496Z,10.02
2023-09-28T23:11:54.877Z,9.13
2023-09-28T23:14:23.461Z,10.23
2023-09-28T23:17:01.339Z,8.52
2023-09-28T23:19:34.892Z,9.90
2023-09-28T23:22:05.125Z,9.73
2023-09-28T23:24:33.589Z,11.60
2023-09-28T23:27:02.127Z,10.40
2023-09-28T23:29:30.835Z,13.07
2023-09-28T23:32:02.377Z,7.57
2023-09-28T23:34:32.830Z,9.40
2023-09-28T23:37:02.856Z,8.95
2023-09-28T23:39:31.220Z,9.30
2023-09-28T23:42:02.134Z,7.72
2023-09-28T23:44:30.711Z,9.40
2023-09-28T23:46:59.094Z,11.13
2023-09-28T23:49:29.920Z,9.90
2023-09-28T23:51:59.610Z,8.82
2023-09-28T23:54:28.528Z,9.45
2023-09-28T23:56:56.843Z,11.57
2023-09-28T23:59:25.367Z,10.98
